Time;durP1;ratioP1;P1;durP2;ratioP2;P2;SDS_P1;SDS_P2;PMS_P1;PMS_P2;Temp;Humidity;BMP_temperature;BMP_pressure;BME280_temperature;BME280_humidity;BME280_pressure;Samples;Min_cycle;Max_cycle;Signal;HPM_P1;HPM_P2
2021/09/21 00:02:19;;;;;;;16.42;11.10;;;;;;;7.40;87.88;101259.95;1702894;83;25775;-76
2021/09/21 00:04:46;;;;;;;21.52;12.23;;;;;;;7.39;87.78;101263.59;1697113;84;28416;-76
2021/09/21 00:07:13;;;;;;;20.02;11.65;;;;;;;7.39;87.89;101262.26;1704313;84;25358;-76
2021/09/21 00:09:40;;;;;;;15.80;10.68;;;;;;;7.37;87.77;101259.75;1609897;84;26490;-76
2021/09/21 00:12:08;;;;;;;16.55;10.38;;;;;;;7.36;87.78;101263.87;1686386;84;25873;-76
2021/09/21 00:14:35;;;;;;;18.62;11.60;;;;;;;7.36;87.86;101264.72;1686181;84;25763;-76
2021/09/21 00:17:02;;;;;;;21.10;12.43;;;;;;;7.34;87.86;101259.19;1685927;83;27510;-76
2021/09/21 00:19:32;;;;;;;23.83;12.45;;;;;;;7.34;87.89;101262.70;1685412;84;25788;-76
2021/09/21 00:21:59;;;;;;;18.07;10.80;;;;;;;7.33;87.89;101261.05;1663324;84;25883;-76
2021/09/21 00:24:26;;;;;;;19.60;10.90;;;;;;;7.31;87.83;101255.03;1689571;83;25886;-75
2021/09/21 00:26:53;;;;;;;23.90;11.43;;;;;;;7.31;87.82;101263.02;1690857;83;25953;-76
2021/09/21 00:29:21;;;;;;;18.80;12.05;;;;;;;7.30;87.73;101263.15;1687408;84;27648;-76
2021/09/21 00:31:56;;;;;;;19.65;11.28;;;;;;;7.30;87.80;101257.81;1668292;83;25973;-76
2021/09/21 00:34:17;;;;;;;20.85;11.50;;;;;;;7.27;87.67;101260.28;1691116;83;25878;-76
2021/09/21 00:36:44;;;;;;;17.27;11.12;;;;;;;7.25;87.76;101264.11;1640949;84;26258;-76
2021/09/21 00:39:12;;;;;;;17.15;11.30;;;;;;;7.23;87.62;101266.09;1705657;84;25873;-76
2021/09/21 00:41:40;;;;;;;24.65;10.63;;;;;;;7.21;87.68;101264.88;1675968;84;27585;-76
2021/09/21 00:44:09;;;;;;;19.45;11.08;;;;;;;7.18;87.78;101272.34;1718574;83;25866;-76
2021/09/21 00:46:36;;;;;;;17.45;11.28;;;;;;;7.15;87.64;101269.48;1690988;83;25954;-75
2021/09/21 00:49:04;;;;;;;20.12;11.53;;;;;;;7.15;87.84;101269.48;1718296;83;26627;-76
2021/09/21 00:51:32;;;;;;;18.50;10.85;;;;;;;7.14;87.79;101265.16;1668551;83;25843;-76
2021/09/21 00:53:59;;;;;;;17.52;10.23;;;;;;;7.11;87.69;101266.77;1654643;84;27607;-76
2021/09/21 00:56:26;;;;;;;17.95;10.53;;;;;;;7.12;87.74;101268.95;1652809;84;26329;-76
2021/09/21 00:58:53;;;;;;;18.12;10.82;;;;;;;7.09;87.73;101266.56;1718647;82;25968;-76
2021/09/21 01:01:20;;;;;;;20.65;11.00;;;;;;;7.05;87.79;101271.36;1640235;84;25962;-76
2021/09/21 01:03:47;;;;;;;18.07;10.35;;;;;;;7.06;87.86;101272.20;1691805;83;25898;-76
2021/09/21 01:06:14;;;;;;;17.15;10.05;;;;;;;7.03;87.82;101267.48;1702936;82;27210;-76
2021/09/21 01:08:41;;;;;;;16.62;11.10;;;;;;;7.03;87.84;101270.16;1729866;82;25953;-76
2021/09/21 01:11:11;;;;;;;19.98;11.75;;;;;;;7.03;87.91;101268.01;1676707;84;25856;-76
2021/09/21 01:13:39;;;;;;;19.27;11.38;;;;;;;7.00;87.90;101276.28;1683413;82;25887;-76
2021/09/21 01:16:07;;;;;;;18.60;11.75;;;;;;;6.99;87.83;101279.43;1682933;82;25326;-76
2021/09/21 01:18:35;;;;;;;21.10;11.80;;;;;;;6.95;87.87;101280.71;1729162;81;27577;-76
2021/09/21 01:21:06;;;;;;;21.75;11.90;;;;;;;6.93;87.87;101277.84;1631618;84;25911;-76
2021/09/21 01:23:53;;;;;;;22.77;11.80;;;;;;;6.92;87.87;101273.03;1684047;82;25955;-76
2021/09/21 01:26:23;;;;;;;19.45;11.45;;;;;;;6.89;87.83;101270.66;1675738;84;26137;-76
2021/09/21 01:28:52;;;;;;;18.82;11.53;;;;;;;6.86;87.81;101272.27;1700571;82;26474;-76
2021/09/21 01:31:19;;;;;;;17.87;10.90;;;;;;;6.84;87.84;101273.42;1627526;85;27581;-76
2021/09/21 01:33:51;;;;;;;17.32;11.05;;;;;;;6.84;87.88;101272.91;1655177;84;26185;-76
2021/09/21 01:36:21;;;;;;;18.17;10.60;;;;;;;6.83;87.92;101273.06;1677769;84;25814;-76
2021/09/21 01:38:48;;;;;;;16.73;11.00;;;;;;;6.79;87.82;101271.20;1700888;84;25848;-76
2021/09/21 01:41:17;;;;;;;21.42;11.53;;;;;;;6.79;87.85;101275.67;1675046;83;26582;-76
2021/09/21 01:43:45;;;;;;;19.50;11.65;;;;;;;6.80;87.82;101280.03;1678266;84;27481;-76
2021/09/21 01:46:17;;;;;;;16.85;10.80;;;;;;;6.78;87.83;101275.31;1678031;84;26092;-76
2021/09/21 01:48:44;;;;;;;19.75;11.35;;;;;;;6.78;87.79;101273.98;1670637;85;25958;-76
2021/09/21 01:51:20;;;;;;;21.23;11.93;;;;;;;6.75;87.82;101275.14;1650705;85;25884;-76
2021/09/21 01:54:28;;;;;;;18.92;12.25;;;;;;;6.73;87.80;101274.45;1656407;84;26571;-76
2021/09/21 01:59:06;;;;;;;17.48;10.32;;;;;;;6.69;87.79;101273.55;1700820;83;25900;-76
2021/09/21 02:01:33;;;;;;;19.95;11.73;;;;;;;6.66;87.87;101273.83;1627324;85;25305;-76
2021/09/21 02:04:04;;;;;;;18.20;11.20;;;;;;;6.67;87.97;101273.67;1678575;84;25716;-76
2021/09/21 02:06:37;;;;;;;22.52;11.68;;;;;;;6.66;87.89;101276.48;1664628;84;25806;-75
2021/09/21 02:09:07;;;;;;;16.87;10.98;;;;;;;6.63;87.88;101278.13;1689468;84;27538;-76
2021/09/21 02:11:34;;;;;;;18.45;11.73;;;;;;;6.63;88.02;101274.95;1628384;85;25788;-76
2021/09/21 02:14:02;;;;;;;19.45;13.18;;;;;;;6.62;87.94;101281.76;1628278;85;25874;-76
2021/09/21 02:16:32;;;;;;;21.40;12.18;;;;;;;6.59;87.97;101282.88;1648333;85;25810;-76
2021/09/21 02:18:59;;;;;;;20.40;12.65;;;;;;;6.57;88.05;101284.84;1677007;85;25873;-76
2021/09/21 02:21:27;;;;;;;19.17;11.22;;;;;;;6.54;88.03;101285.64;1663903;84;28738;-76
2021/09/21 02:23:57;;;;;;;19.57;11.12;;;;;;;6.55;88.18;101277.98;1652360;84;26527;-76
2021/09/21 02:26:25;;;;;;;17.62;11.88;;;;;;;6.53;88.04;101282.61;1667309;83;25830;-76
2021/09/21 02:28:52;;;;;;;19.80;12.43;;;;;;;6.52;88.08;101280.95;1718350;83;26407;-76
2021/09/21 02:31:20;;;;;;;25.90;12.07;;;;;;;6.51;88.16;101291.23;1640092;84;25784;-76
2021/09/21 02:33:48;;;;;;;30.77;17.48;;;;;;;6.48;88.13;101286.22;1692035;83;27570;-76
2021/09/21 02:36:15;;;;;;;23.98;13.72;;;;;;;6.44;88.20;101288.80;1661664;84;26552;-76
2021/09/21 02:38:42;;;;;;;20.10;12.60;;;;;;;6.42;88.27;101292.09;1721904;82;25831;-76
2021/09/21 02:41:10;;;;;;;20.50;11.78;;;;;;;6.39;88.30;101290.58;1656340;83;26593;-76
2021/09/21 02:43:37;;;;;;;20.82;12.10;;;;;;;6.37;88.31;101294.36;1691131;83;26502;-76
2021/09/21 02:46:04;;;;;;;20.02;11.63;;;;;;;6.34;88.43;101292.81;1667913;83;27602;-76
2021/09/21 02:48:32;;;;;;;18.20;12.13;;;;;;;6.35;88.53;101290.48;1676587;84;26633;-75
2021/09/21 02:51:00;;;;;;;17.90;11.50;;;;;;;6.31;88.53;101294.42;1703457;82;25886;-76
2021/09/21 02:53:27;;;;;;;16.48;10.98;;;;;;;6.29;88.56;101299.05;1714526;81;25869;-76
2021/09/21 02:55:54;;;;;;;25.17;12.20;;;;;;;6.27;88.56;101294.84;1670751;82;25342;-76
2021/09/21 02:58:22;;;;;;;20.95;11.73;;;;;;;6.26;88.64;101302.49;1722196;80;26892;-76
2021/09/21 03:00:53;;;;;;;17.77;11.25;;;;;;;6.22;88.56;101303.28;1669191;83;25898;-76
2021/09/21 03:03:18;;;;;;;19.23;11.85;;;;;;;6.20;88.64;101300.73;1698310;81;25863;-76
2021/09/21 03:05:55;;;;;;;20.43;11.88;;;;;;;6.18;88.56;101302.70;1691231;82;25973;-76
2021/09/21 03:08:19;;;;;;;18.92;11.38;;;;;;;6.19;88.61;101299.55;1681581;83;25766;-76
2021/09/21 03:13:54;;;;;;;21.70;11.57;;;;;;;6.13;88.50;101298.80;1692127;83;25571;-76
2021/09/21 03:18:56;;;;;;;20.45;11.18;;;;;;;6.14;88.72;101295.14;1703821;83;25774;-76
2021/09/21 03:21:24;;;;;;;19.15;11.35;;;;;;;6.13;88.76;101290.81;1643016;84;25850;-75
2021/09/21 03:23:51;;;;;;;17.45;11.38;;;;;;;6.10;88.67;101289.27;1713721;82;27568;-76
2021/09/21 03:26:18;;;;;;;17.82;11.05;;;;;;;6.09;88.75;101294.23;1678486;83;25956;-75
2021/09/21 03:28:45;;;;;;;19.42;11.38;;;;;;;6.07;88.75;101289.55;1727068;82;25956;-76
2021/09/21 03:31:12;;;;;;;21.48;11.53;;;;;;;6.06;88.77;101290.54;1687510;83;25783;-76
2021/09/21 03:33:39;;;;;;;15.65;10.20;;;;;;;6.03;88.94;101292.14;1701771;82;25809;-76
2021/09/21 03:36:06;;;;;;;19.62;11.90;;;;;;;6.03;88.92;101288.66;1669811;83;28801;-76
2021/09/21 03:38:33;;;;;;;17.85;11.68;;;;;;;6.03;88.90;101289.48;1700711;83;25922;-76
2021/09/21 03:41:00;;;;;;;17.50;11.05;;;;;;;6.04;88.91;101296.98;1666462;83;25930;-76
2021/09/21 03:43:27;;;;;;;20.32;12.55;;;;;;;6.01;88.85;101295.43;1705102;83;26652;-76
2021/09/21 03:45:55;;;;;;;21.30;12.15;;;;;;;5.99;88.83;101304.52;1666466;83;25869;-76
2021/09/21 03:48:24;;;;;;;19.40;12.18;;;;;;;5.98;89.00;101301.53;1718802;82;27469;-76
2021/09/21 03:50:51;;;;;;;16.85;11.80;;;;;;;5.96;88.98;101304.82;1726338;82;25930;-76
2021/09/21 03:53:19;;;;;;;17.37;11.28;;;;;;;5.94;88.94;101307.63;1649011;82;25849;-76
2021/09/21 03:55:46;;;;;;;24.02;12.07;;;;;;;5.94;88.87;101310.29;1686345;84;26612;-75
2021/09/21 03:58:13;;;;;;;19.30;11.43;;;;;;;5.94;88.90;101318.27;1684452;84;25933;-76
2021/09/21 04:00:40;;;;;;;16.62;10.32;;;;;;;5.92;88.92;101315.39;1704550;83;27486;-76
2021/09/21 04:03:07;;;;;;;18.35;10.88;;;;;;;5.92;88.87;101326.84;1641133;84;25794;-76
2021/09/21 04:05:34;;;;;;;18.45;11.63;;;;;;;5.89;88.92;101315.66;1686060;84;26014;-76
2021/09/21 04:08:01;;;;;;;21.15;12.40;;;;;;;5.87;88.95;101329.09;1661929;84;25875;-76
2021/09/21 04:10:28;;;;;;;20.45;12.10;;;;;;;5.87;89.13;101329.58;1707430;83;25718;-76
2021/09/21 04:12:55;;;;;;;16.05;10.20;;;;;;;5.84;89.00;101336.48;1643857;83;28128;-76
2021/09/21 04:15:22;;;;;;;18.25;10.28;;;;;;;5.84;88.95;101344.46;1676247;84;25858;-76
2021/09/21 04:17:49;;;;;;;17.62;10.95;;;;;;;5.81;88.87;101355.36;1676666;84;26188;-75
2021/09/21 04:20:16;;;;;;;17.98;11.22;;;;;;;5.76;88.95;101359.76;1677159;84;26424;-76
2021/09/21 04:22:44;;;;;;;20.37;11.75;;;;;;;5.75;88.98;101359.39;1645102;82;25825;-75
2021/09/21 04:25:12;;;;;;;24.80;14.30;;;;;;;5.76;89.08;101356.25;1641324;84;27472;-76
2021/09/21 04:27:40;;;;;;;19.60;12.47;;;;;;;5.75;89.14;101358.06;1672270;84;25737;-75
2021/09/21 04:30:08;;;;;;;22.20;12.28;;;;;;;5.74;89.25;101354.22;1664146;84;26496;-75
2021/09/21 04:32:35;;;;;;;21.17;12.03;;;;;;;5.75;89.33;101349.27;1605602;85;26527;-78
2021/09/21 04:35:02;;;;;;;22.62;12.30;;;;;;;5.71;89.15;101351.34;1663656;84;26462;-77
2021/09/21 04:37:29;;;;;;;23.25;13.18;;;;;;;5.74;89.32;101352.41;1689269;84;27455;-78
2021/09/21 04:39:56;;;;;;;22.80;12.80;;;;;;;5.71;89.42;101352.67;1677183;85;26444;-78
2021/09/21 04:42:25;;;;;;;18.30;11.83;;;;;;;5.72;89.47;101358.36;1648106;85;25925;-78
2021/09/21 04:44:52;;;;;;;19.40;12.20;;;;;;;5.74;89.50;101360.87;1631021;84;26585;-78
2021/09/21 04:47:19;;;;;;;17.20;11.00;;;;;;;5.74;89.54;101357.73;1663748;84;25814;-77
2021/09/21 04:49:46;;;;;;;17.32;11.53;;;;;;;5.76;89.60;101366.41;1689785;84;27493;-78
2021/09/21 04:52:14;;;;;;;19.42;11.50;;;;;;;5.73;89.57;101364.52;1631895;84;25842;-76
2021/09/21 04:54:42;;;;;;;14.65;9.55;;;;;;;5.71;89.55;101371.28;1691335;83;25779;-76
2021/09/21 04:57:11;;;;;;;17.23;10.95;;;;;;;5.73;89.76;101375.97;1676738;84;26491;-77
2021/09/21 04:59:38;;;;;;;21.82;11.78;;;;;;;5.68;89.66;101374.70;1677267;84;25865;-77
2021/09/21 05:02:05;;;;;;;20.90;12.00;;;;;;;5.68;89.81;101375.56;1631109;84;27570;-77
2021/09/21 05:04:32;;;;;;;17.00;10.72;;;;;;;5.72;89.94;101372.13;1669022;83;25805;-78
2021/09/21 05:06:59;;;;;;;19.73;12.10;;;;;;;5.75;89.93;101374.52;1691897;83;25746;-78
2021/09/21 05:09:26;;;;;;;18.02;11.63;;;;;;;5.77;89.91;101376.55;1677475;84;26515;-77
2021/09/21 05:11:53;;;;;;;18.87;11.28;;;;;;;5.78;90.00;101380.88;1655725;83;25772;-78
2021/09/21 05:14:20;;;;;;;22.05;11.60;;;;;;;5.79;90.19;101385.23;1654845;84;27637;-78
2021/09/21 05:16:47;;;;;;;24.37;12.15;;;;;;;5.82;90.16;101387.59;1677229;84;25807;-77
2021/09/21 05:19:15;;;;;;;18.62;11.33;;;;;;;5.85;90.29;101382.05;1718679;82;25819;-78
2021/09/21 05:21:42;;;;;;;22.17;12.45;;;;;;;5.86;90.30;101386.41;1635101;83;25768;-78
2021/09/21 05:24:09;;;;;;;21.35;12.10;;;;;;;5.88;90.37;101387.92;1668544;82;25847;-78
2021/09/21 05:26:36;;;;;;;19.70;12.65;;;;;;;5.92;90.50;101388.52;1677465;84;27597;-78
2021/09/21 05:29:04;;;;;;;21.87;13.03;;;;;;;5.94;90.62;101381.23;1718411;83;25790;-78
2021/09/21 05:31:32;;;;;;;19.55;12.10;;;;;;;5.94;90.69;101383.41;1646290;83;25865;-77
2021/09/21 05:34:01;;;;;;;20.27;12.45;;;;;;;5.98;90.78;101391.46;1678005;84;25780;-77
2021/09/21 05:36:28;;;;;;;22.55;13.15;;;;;;;6.02;91.02;101386.70;1676446;84;25814;-78
2021/09/21 05:38:55;;;;;;;20.37;12.75;;;;;;;6.07;91.12;101387.95;1718393;81;28192;-78
2021/09/21 05:41:22;;;;;;;19.75;12.58;;;;;;;6.12;91.17;101393.70;1617705;84;25944;-78
2021/09/21 05:43:49;;;;;;;18.20;11.50;;;;;;;6.14;91.32;101382.43;1691495;83;25855;-81
2021/09/21 05:46:16;;;;;;;23.45;13.72;;;;;;;6.18;91.50;101390.48;1677652;84;25823;-78
2021/09/21 05:48:43;;;;;;;21.10;12.78;;;;;;;6.23;91.66;101386.92;1718414;83;25861;-77
2021/09/21 05:51:10;;;;;;;23.38;13.60;;;;;;;6.30;91.87;101379.23;1618521;84;28155;-78
2021/09/21 05:53:37;;;;;;;19.87;11.93;;;;;;;6.37;92.06;101382.16;1633937;83;25928;-77
2021/09/21 05:56:04;;;;;;;19.57;13.05;;;;;;;6.45;92.22;101376.97;1662266;84;25871;-78
2021/09/21 05:58:32;;;;;;;22.15;12.53;;;;;;;6.56;92.55;101379.48;1718431;82;25829;-78
2021/09/21 06:00:59;;;;;;;19.30;11.75;;;;;;;6.63;92.88;101376.10;1618232;84;25367;-78
2021/09/21 06:03:26;;;;;;;18.95;11.75;;;;;;;6.73;93.12;101385.42;1691885;83;27460;-78
2021/09/21 06:05:53;;;;;;;17.70;11.60;;;;;;;6.81;92.95;101377.55;1662699;84;25894;-78
2021/09/21 06:08:20;;;;;;;19.62;11.83;;;;;;;6.88;92.91;101378.66;1691571;83;26685;-78
2021/09/21 06:10:47;;;;;;;19.37;12.10;;;;;;;6.92;92.79;101384.89;1662287;84;26489;-78
2021/09/21 06:13:14;;;;;;;21.73;12.05;;;;;;;6.99;92.74;101380.64;1691593;83;25755;-78
2021/09/21 06:15:41;;;;;;;20.85;12.35;;;;;;;7.06;92.80;101380.91;1691714;83;28207;-78
2021/09/21 06:18:08;;;;;;;19.05;12.03;;;;;;;7.15;93.00;101376.53;1677057;84;26573;-78
2021/09/21 06:20:36;;;;;;;23.67;11.70;;;;;;;7.22;92.81;101378.48;1645340;83;25899;-78
2021/09/21 06:23:03;;;;;;;16.27;10.45;;;;;;;7.30;92.79;101385.25;1678082;84;25872;-78
2021/09/21 06:25:30;;;;;;;16.48;10.82;;;;;;;7.38;92.81;101384.02;1663359;85;26065;-78
2021/09/21 06:27:57;;;;;;;17.50;11.03;;;;;;;7.43;92.56;101387.08;1676479;85;27617;-78
2021/09/21 06:30:24;;;;;;;19.17;11.40;;;;;;;7.52;92.75;101388.03;1605858;85;25833;-78
2021/09/21 06:32:51;;;;;;;16.52;11.35;;;;;;;7.62;92.73;101395.47;1627409;85;25874;-79
2021/09/21 06:35:18;;;;;;;18.15;11.93;;;;;;;7.70;92.83;101407.08;1627901;85;25834;-78
2021/09/21 06:37:47;;;;;;;21.12;12.68;;;;;;;7.77;92.71;101405.50;1649126;85;25873;-78
2021/09/21 06:40:14;;;;;;;22.07;12.50;;;;;;;7.85;92.82;101406.59;1627031;85;28010;-78
2021/09/21 06:42:42;;;;;;;22.82;12.03;;;;;;;7.92;93.24;101413.83;1626876;85;26108;-77
2021/09/21 06:45:14;;;;;;;18.35;11.95;;;;;;;8.00;93.44;101419.25;1658601;84;26073;-78
2021/09/21 06:47:42;;;;;;;14.70;9.58;;;;;;;8.04;92.78;101415.81;1700443;83;25858;-78
2021/09/21 06:50:11;;;;;;;16.67;11.28;;;;;;;8.04;92.40;101423.29;1647466;83;25300;-78
2021/09/21 06:52:38;;;;;;;18.00;11.83;;;;;;;8.11;92.68;101416.37;1637441;85;27554;-78
2021/09/21 06:55:07;;;;;;;17.48;11.85;;;;;;;8.26;93.58;101430.06;1659044;85;25918;-77
2021/09/21 06:57:34;;;;;;;20.32;11.50;;;;;;;8.35;93.44;101431.83;1673685;84;26454;-78
2021/09/21 07:00:01;;;;;;;17.80;11.38;;;;;;;8.42;92.97;101431.08;1608768;85;26259;-77
2021/09/21 07:02:28;;;;;;;16.93;12.07;;;;;;;8.42;92.49;101427.56;1658056;85;25761;-78
2021/09/21 07:04:55;;;;;;;18.25;11.43;;;;;;;8.45;92.28;101420.56;1635453;85;28147;-78
2021/09/21 07:07:22;;;;;;;19.25;11.08;;;;;;;8.51;92.35;101425.33;1675606;84;25796;-77
2021/09/21 07:09:49;;;;;;;16.35;10.80;;;;;;;8.56;92.37;101432.35;1636975;85;26404;-78
2021/09/21 07:12:16;;;;;;;16.17;10.65;;;;;;;8.61;92.60;101435.91;1635701;85;26489;-78
2021/09/21 07:14:43;;;;;;;19.77;13.72;;;;;;;8.65;92.42;101433.27;1657850;85;25317;-78
2021/09/21 07:17:10;;;;;;;20.05;11.63;;;;;;;8.72;92.76;101426.33;1592973;85;28370;-78
2021/09/21 07:19:37;;;;;;;17.87;10.48;;;;;;;8.79;92.85;101426.05;1675384;84;25925;-78
2021/09/21 07:22:04;;;;;;;16.70;10.08;;;;;;;8.85;92.33;101420.94;1635813;85;25789;-78
2021/09/21 07:24:31;;;;;;;17.23;9.83;;;;;;;8.90;92.36;101420.44;1636084;84;25879;-78
2021/09/21 07:26:58;;;;;;;16.27;10.63;;;;;;;8.97;92.16;101426.36;1631057;84;25831;-78
2021/09/21 07:29:25;;;;;;;16.60;10.13;;;;;;;9.02;91.65;101430.74;1718327;83;28215;-78
2021/09/21 07:31:52;;;;;;;16.02;10.20;;;;;;;9.05;91.56;101430.41;1691882;83;25751;-78
2021/09/21 07:34:19;;;;;;;16.90;10.55;;;;;;;9.12;91.76;101435.48;1677570;84;25825;-77
2021/09/21 07:36:51;;;;;;;16.30;9.65;;;;;;;9.21;91.89;101435.03;1675848;84;25983;-78
2021/09/21 07:39:15;;;;;;;16.00;9.43;;;;;;;9.26;91.02;101444.25;1705045;83;26554;-78
2021/09/21 07:41:42;;;;;;;18.20;10.13;;;;;;;9.28;90.80;101458.81;1668237;83;27659;-79
2021/09/21 07:44:09;;;;;;;14.43;9.78;;;;;;;9.30;90.48;101459.49;1681476;84;25855;-78
2021/09/21 07:46:37;;;;;;;15.13;9.33;;;;;;;9.31;90.14;101468.69;1654059;84;25991;-78
2021/09/21 07:49:04;;;;;;;12.78;9.50;;;;;;;9.31;90.14;101468.69;1718334;83;26483;-78
2021/09/21 07:51:31;;;;;;;14.87;10.03;;;;;;;9.36;90.83;101474.05;1691576;83;25934;-78
2021/09/21 07:53:58;;;;;;;14.70;9.60;;;;;;;9.39;90.43;101479.09;1692058;83;27222;-78
2021/09/21 07:56:25;;;;;;;12.65;8.88;;;;;;;9.45;90.38;101477.97;1667759;83;25869;-78
2021/09/21 07:58:52;;;;;;;13.95;9.03;;;;;;;9.49;89.95;101463.28;1705212;84;26515;-78
2021/09/21 08:01:19;;;;;;;14.45;9.03;;;;;;;9.54;89.35;101470.84;1668378;83;25945;-78
2021/09/21 08:03:46;;;;;;;16.67;10.32;;;;;;;9.60;90.00;101472.87;1677255;84;26324;-78
2021/09/21 08:06:14;;;;;;;11.78;8.83;;;;;;;9.65;89.33;101471.88;1666912;83;27325;-78
2021/09/21 08:08:43;;;;;;;13.88;8.30;;;;;;;9.68;89.09;101472.41;1708034;82;25768;-76
2021/09/21 08:11:10;;;;;;;13.40;8.65;;;;;;;9.75;89.85;101483.31;1675648;81;26617;-76
2021/09/21 08:13:37;;;;;;;11.78;8.78;;;;;;;9.83;89.14;101480.17;1669415;84;25777;-76
2021/09/21 08:16:07;;;;;;;14.23;9.10;;;;;;;9.90;88.67;101483.86;1639138;83;25895;-76
2021/09/21 08:18:35;;;;;;;11.22;8.63;;;;;;;9.91;88.71;101482.88;1721822;82;29006;-76
2021/09/21 08:21:03;;;;;;;12.75;7.95;;;;;;;9.99;88.71;101484.24;1661563;83;25745;-76
2021/09/21 08:23:30;;;;;;;13.95;9.18;;;;;;;10.06;88.76;101481.76;1675694;83;26506;-76
2021/09/21 08:25:57;;;;;;;11.20;7.83;;;;;;;10.06;87.94;101486.62;1646757;84;25790;-76
2021/09/21 08:28:24;;;;;;;12.88;8.50;;;;;;;10.12;88.39;101483.81;1698793;83;25914;-76
2021/09/21 08:30:51;;;;;;;12.10;8.18;;;;;;;10.18;88.69;101489.86;1675743;83;28221;-76
2021/09/21 08:33:18;;;;;;;13.45;8.65;;;;;;;10.21;88.03;101491.37;1675964;83;25762;-76
2021/09/21 08:35:45;;;;;;;14.40;8.65;;;;;;;10.26;88.00;101483.70;1675294;83;26532;-77
2021/09/21 08:38:14;;;;;;;15.00;8.33;;;;;;;10.32;87.92;101482.55;1721796;81;26066;-76
2021/09/21 08:40:41;;;;;;;15.85;8.48;;;;;;;10.37;88.19;101479.39;1699721;83;25731;-76
2021/09/21 08:43:08;;;;;;;15.30;9.48;;;;;;;10.41;87.31;101483.41;1661867;83;27433;-76
2021/09/21 08:45:36;;;;;;;12.43;9.13;;;;;;;10.48;87.94;101479.05;1675762;83;25935;-76
2021/09/21 08:48:04;;;;;;;15.90;9.10;;;;;;;10.58;88.16;101486.45;1721940;81;25862;-76
2021/09/21 08:50:31;;;;;;;11.45;8.20;;;;;;;10.71;87.88;101481.45;1698887;83;26605;-76
2021/09/21 08:52:58;;;;;;;10.43;7.90;;;;;;;10.80;86.93;101485.78;1699044;83;25912;-76
2021/09/21 08:55:25;;;;;;;13.45;7.90;;;;;;;10.84;86.35;101477.25;1675741;83;27624;-76
2021/09/21 08:57:54;;;;;;;13.48;7.53;;;;;;;10.89;86.26;101470.05;1721766;83;25816;-75
2021/09/21 09:00:25;;;;;;;11.15;7.47;;;;;;;10.93;86.27;101472.73;1699615;83;25761;-76
2021/09/21 09:03:12;;;;;;;17.90;10.15;;;;;;;10.94;85.23;101465.03;1684617;83;26660;-76
2021/09/21 09:05:53;;;;;;;17.50;9.73;;;;;;;11.04;85.56;101462.17;1698024;83;25807;-76
2021/09/21 09:08:36;;;;;;;11.85;8.55;;;;;;;11.21;86.57;101461.14;1724974;81;28207;-76
2021/09/21 09:11:18;;;;;;;13.25;7.53;;;;;;;11.37;86.44;101451.25;1704116;82;25793;-76
2021/09/21 09:13:52;;;;;;;10.30;6.95;;;;;;;11.52;86.09;101452.71;1729489;81;25761;-76
2021/09/21 09:16:22;;;;;;;13.98;7.10;;;;;;;11.65;84.21;101457.04;1680512;82;25814;-76
2021/09/21 09:19:03;;;;;;;13.38;6.40;;;;;;;11.72;84.28;101458.56;1729402;82;26499;-76
2021/09/21 09:21:32;;;;;;;;;;;;;;;11.80;83.23;101450.47;1707022;82;26931;-77
2021/09/21 09:24:01;;;;;;;8.38;5.45;;;;;;;11.85;83.22;101452.95;1675311;84;26169;-76
2021/09/21 09:26:31;;;;;;;12.03;6.78;;;;;;;11.92;82.08;101449.06;1697019;84;26513;-77
2021/09/21 09:28:57;;;;;;;11.15;5.90;;;;;;;11.97;81.54;101446.20;1708113;83;25863;-76
2021/09/21 09:31:34;;;;;;;8.38;5.97;;;;;;;12.00;81.47;101447.17;1681087;82;25935;-76
2021/09/21 09:34:24;;;;;;;6.58;5.00;;;;;;;12.03;81.37;101446.00;1680675;82;27367;-76
2021/09/21 09:37:00;;;;;;;8.65;5.55;;;;;;;12.10;81.72;101445.10;1697411;84;25850;-76
2021/09/21 09:39:30;;;;;;;9.23;5.28;;;;;;;12.26;80.96;101438.81;1729415;82;25786;-76
2021/09/21 09:42:00;;;;;;;7.00;5.17;;;;;;;12.36;80.07;101442.94;1650945;84;26631;-77
2021/09/21 09:44:30;;;;;;;10.40;4.40;;;;;;;12.44;78.84;101434.01;1653263;84;25333;-76
2021/09/21 09:47:04;;;;;;;7.47;5.03;;;;;;;12.49;77.20;101439.66;1729655;82;28120;-77
2021/09/21 09:49:41;;;;;;;7.33;5.08;;;;;;;12.57;78.17;101441.47;1729366;82;25814;-77
2021/09/21 09:52:12;;;;;;;7.42;5.10;;;;;;;12.70;78.28;101435.80;1673793;84;25813;-77
2021/09/21 09:54:43;;;;;;;7.60;5.37;;;;;;;12.80;78.60;101433.72;1680676;82;26286;-77
2021/09/21 09:57:11;;;;;;;8.40;5.77;;;;;;;12.87;77.69;101441.38;1674917;84;25774;-77
2021/09/21 09:59:41;;;;;;;7.17;5.25;;;;;;;12.85;77.67;101437.22;1729638;82;27603;-76
2021/09/21 10:02:08;;;;;;;9.15;5.67;;;;;;;12.81;75.97;101435.91;1630780;84;25802;-76
2021/09/21 10:04:36;;;;;;;7.42;4.75;;;;;;;12.80;77.26;101436.91;1658375;82;26512;-76
2021/09/21 10:07:04;;;;;;;10.75;5.33;;;;;;;12.84;75.57;101446.28;1651837;84;26471;-77
2021/09/21 10:09:31;;;;;;;6.67;4.25;;;;;;;12.82;74.81;101441.10;1706188;82;25976;-77
2021/09/21 10:12:00;;;;;;;6.60;4.50;;;;;;;12.87;75.49;101436.53;1654159;84;28183;-76
2021/09/21 10:14:27;;;;;;;9.33;4.53;;;;;;;12.90;74.72;101432.11;1683401;82;26663;-76
2021/09/21 10:17:04;;;;;;;6.45;4.67;;;;;;;12.96;76.27;101418.78;1699115;84;25234;-77
2021/09/21 10:19:35;;;;;;;6.10;4.80;;;;;;;13.02;75.57;101415.89;1706968;82;25782;-76
2021/09/21 10:22:03;;;;;;;6.20;4.40;;;;;;;13.05;74.86;101427.64;1682618;81;26097;-76
2021/09/21 10:24:42;;;;;;;8.53;4.35;;;;;;;13.03;74.57;101425.11;1660203;82;28172;-76
2021/09/21 10:27:13;;;;;;;7.25;4.90;;;;;;;12.99;74.68;101421.62;1670477;84;25944;-76
2021/09/21 10:29:40;;;;;;;6.50;3.98;;;;;;;12.97;74.79;101422.31;1700873;84;25725;-76
2021/09/21 10:32:16;;;;;;;4.30;3.72;;;;;;;13.00;74.16;101426.00;1625076;85;25946;-76
2021/09/21 10:34:47;;;;;;;6.55;3.75;;;;;;;13.06;73.70;101411.84;1673350;84;25765;-76
2021/09/21 10:37:17;;;;;;;7.85;3.92;;;;;;;13.22;75.16;101413.01;1700519;82;27643;-76
2021/09/21 10:39:45;;;;;;;8.10;3.67;;;;;;;13.29;73.88;101416.64;1649281;85;25895;-76
2021/09/21 10:42:16;;;;;;;7.12;3.75;;;;;;;13.33;71.88;101422.48;1624633;85;25963;-76
2021/09/21 10:44:54;;;;;;;6.78;3.33;;;;;;;13.31;71.61;101432.59;1672911;84;26542;-76
2021/09/21 10:47:27;;;;;;;6.50;3.22;;;;;;;13.29;71.49;101434.13;1700530;83;26225;-76
2021/09/21 10:50:14;;;;;;;7.60;2.95;;;;;;;13.27;71.08;101433.48;1700753;84;27533;-76
2021/09/21 10:52:41;;;;;;;4.65;2.92;;;;;;;13.27;71.37;101434.83;1677009;84;26585;-77
2021/09/21 10:55:12;;;;;;;5.40;3.33;;;;;;;13.26;71.02;101435.02;1627490;85;25943;-77
2021/09/21 10:57:43;;;;;;;6.12;3.10;;;;;;;13.26;71.35;101431.80;1678560;84;25819;-76
2021/09/21 11:00:20;;;;;;;3.42;2.52;;;;;;;13.26;70.21;101434.48;1701967;83;26030;-77
2021/09/21 11:02:54;;;;;;;4.83;2.15;;;;;;;13.25;70.45;101434.17;1649606;84;27432;-76
2021/09/21 11:05:26;;;;;;;6.55;2.58;;;;;;;13.34;70.60;101438.46;1625125;85;26427;-76
2021/09/21 11:07:59;;;;;;;5.15;3.20;;;;;;;13.41;69.38;101436.69;1678723;85;26490;-77
2021/09/21 11:10:36;;;;;;;3.95;2.80;;;;;;;13.54;70.51;101439.57;1700246;84;25929;-76
2021/09/21 11:13:13;;;;;;;4.65;2.90;;;;;;;13.69;69.69;101448.98;1678108;84;25913;-76
2021/09/21 11:15:41;;;;;;;3.72;2.58;;;;;;;13.79;68.08;101438.79;1655174;84;28278;-76
2021/09/21 11:18:18;;;;;;;3.40;2.52;;;;;;;13.87;67.51;101440.02;1648838;85;25956;-77
2021/09/21 11:21:09;;;;;;;3.60;2.55;;;;;;;13.85;66.67;101446.95;1700930;84;25762;-76
2021/09/21 11:23:43;;;;;;;4.75;2.92;;;;;;;13.81;66.14;101457.75;1649446;85;25908;-77
2021/09/21 11:26:14;;;;;;;4.72;3.20;;;;;;;13.75;67.05;101454.46;1644758;84;26686;-77
2021/09/21 11:28:46;;;;;;;7.20;3.05;;;;;;;13.71;67.39;101445.09;1729962;82;27530;-77
2021/09/21 11:31:14;;;;;;;4.75;2.67;;;;;;;13.69;67.63;101445.78;1699176;84;25878;-77
2021/09/21 11:33:42;;;;;;;5.10;2.42;;;;;;;13.74;67.94;101454.16;1706601;82;26600;-77
2021/09/21 11:36:12;;;;;;;5.22;3.02;;;;;;;13.82;66.34;101452.70;1654348;84;25949;-77